Terminal Aerodrome Forecast
Issued by NWS

Home | Current Version | Previous Version | Text Only | Print | Product List | Glossary On
Versions: 1 2 3 4 5 6 7 8 9 10 11 12 13 14 15 16 17
000
FTUS42 TJSJ 031306 AAA
TAFJBQ
TAF AMD
TJBQ 031306Z 0313/0412 08020KT P6SM VCSH SCT025 SCT040
      TEMPO 0313/0314 -SHRA BKN025 OVC045
     FM032300 10013KT P6SM FEW025
      AMD NOT SKED 0402/0411=

USA.gov is the U.S. government's official web portal to all federal, state and local government web resources and services.